Clark Fork, Idaho
Current Conditions -  °F | °C
As of 11:55 PM on Wednesday 28 Jan 2015 (Local Time) from KSZT Reporting Station
Haze Haze  
Wind Chill: 26°   Ceiling: 200
Heat Index: 32°   Visibility: 1mi
Dew Point: 32°   Wind: 6mph
Humidity: 100%   Direction: 30°NNE
Pressure: 30.47"   Gusts: NA
Location:  48.15°N, 116.18°W
Report Text: KSZT 290755Z AUTO 03005KT 1SM BR OVC002 00/00 A3047 RMK AO2
Loading
Personal Weather Stations






























Interactive Weather Map New forecast layout! Learn more

10-Day Weather Forecast

Advertisements
Track Severe Weather on mobile